Time;durP1;ratioP1;P1;durP2;ratioP2;P2;SDS_P1;SDS_P2;PMS_P1;PMS_P2;Temp;Humidity;BMP_temperature;BMP_pressure;BME280_temperature;BME280_humidity;BME280_pressure;Samples;Min_cycle;Max_cycle;Signal;HPM_P1;HPM_P2
2024/02/13 00:01:40;;;;;;;6.82;2.83;;;;;;;9.30;63.21;99747.44;4142378;28;20045;-75
2024/02/13 00:03:41;;;;;;;6.40;2.72;;;;;;;9.20;63.58;99747.47;4133935;28;20030;-76
2024/02/13 00:05:43;;;;;;;7.45;2.50;;;;;;;9.14;63.58;99748.03;4140077;28;20096;-75
2024/02/13 00:07:43;;;;;;;5.65;2.45;;;;;;;9.09;63.63;99755.63;4134628;28;20029;-75
2024/02/13 00:09:44;;;;;;;10.85;3.00;;;;;;;9.04;63.71;99758.72;4143183;28;20393;-75
2024/02/13 00:11:46;;;;;;;6.13;2.17;;;;;;;9.01;63.77;99764.31;4140070;28;20030;-75
2024/02/13 00:13:47;;;;;;;9.32;2.70;;;;;;;8.98;63.70;99775.25;4140458;28;20029;-75
2024/02/13 00:15:47;;;;;;;8.23;3.03;;;;;;;8.93;63.65;99773.03;4140332;28;20026;-75
2024/02/13 00:17:48;;;;;;;10.75;3.03;;;;;;;8.87;63.68;99776.25;4145124;28;20104;-75
2024/02/13 00:19:52;;;;;;;8.55;2.53;;;;;;;8.87;63.75;99778.94;4139228;28;20597;-75
2024/02/13 00:21:53;;;;;;;8.45;2.38;;;;;;;8.86;63.96;99783.44;4139498;28;20026;-75
2024/02/13 00:23:53;;;;;;;12.27;3.08;;;;;;;8.84;63.73;99788.06;4140109;28;20028;-76
2024/02/13 00:25:54;;;;;;;5.47;2.22;;;;;;;8.80;63.88;99794.63;4139655;28;20025;-75
2024/02/13 00:27:55;;;;;;;8.60;2.38;;;;;;;8.65;64.16;99796.84;4134270;28;20037;-75
2024/02/13 00:29:56;;;;;;;7.45;2.42;;;;;;;8.70;64.28;99799.09;4132414;28;20034;-74
2024/02/13 00:31:57;;;;;;;5.28;2.30;;;;;;;8.68;64.14;99799.25;4133055;28;20506;-75
2024/02/13 00:33:57;;;;;;;7.70;2.45;;;;;;;8.66;64.26;99811.88;4131564;28;20266;-76
2024/02/13 00:35:58;;;;;;;9.30;2.50;;;;;;;8.69;64.23;99822.25;4130936;28;20093;-75
2024/02/13 00:37:58;;;;;;;6.78;2.08;;;;;;;8.77;64.07;99818.06;4131401;28;20061;-75
2024/02/13 00:40:02;;;;;;;6.43;2.30;;;;;;;8.71;64.21;99828.31;4131072;28;20027;-75
2024/02/13 00:42:05;;;;;;;5.43;1.85;;;;;;;8.73;64.08;99829.00;4130250;28;20278;-75
2024/02/13 00:44:06;;;;;;;10.05;2.38;;;;;;;8.77;63.98;99831.38;4131405;28;20061;-75
2024/02/13 00:46:07;;;;;;;8.55;2.90;;;;;;;8.73;64.12;99846.81;4138791;28;20026;-75
2024/02/13 00:48:08;;;;;;;8.43;2.85;;;;;;;8.68;64.13;99841.06;4145288;28;20081;-74
2024/02/13 00:50:09;;;;;;;8.13;2.50;;;;;;;8.73;64.18;99850.34;4138739;28;20509;-75
2024/02/13 00:52:10;;;;;;;7.13;2.35;;;;;;;8.66;64.44;99846.50;4146251;28;20116;-75
2024/02/13 00:54:16;;;;;;;6.45;2.20;;;;;;;8.77;63.99;99845.56;4139304;28;20029;-74
2024/02/13 00:56:17;;;;;;;8.20;2.17;;;;;;;8.79;64.04;99851.59;4130999;28;20026;-75
2024/02/13 00:58:17;;;;;;;6.80;2.45;;;;;;;8.88;63.61;99858.75;4131111;28;20522;-75
2024/02/13 01:00:18;;;;;;;4.82;2.08;;;;;;;8.90;63.66;99867.47;4138337;28;20030;-74
2024/02/13 01:02:18;;;;;;;5.30;2.05;;;;;;;8.82;63.97;99869.16;4140410;28;20058;-75
2024/02/13 01:04:19;;;;;;;6.50;2.40;;;;;;;8.76;64.06;99867.00;4131934;28;20486;-74
2024/02/13 01:06:19;;;;;;;8.23;2.37;;;;;;;8.85;63.71;99876.84;4140277;28;20269;-74
2024/02/13 01:08:23;;;;;;;10.93;2.90;;;;;;;8.93;63.42;99878.84;4147776;28;20273;-74
2024/02/13 01:10:24;;;;;;;6.97;2.42;;;;;;;8.86;63.56;99884.72;4142113;28;20069;-74
2024/02/13 01:12:24;;;;;;;8.88;2.22;;;;;;;8.88;63.49;99885.41;4140138;28;20076;-75
2024/02/13 01:14:26;;;;;;;6.95;2.40;;;;;;;8.92;63.50;99888.66;4138540;28;20034;-75
2024/02/13 01:16:26;;;;;;;7.22;2.50;;;;;;;8.90;63.56;99890.63;4154515;28;20029;-75
2024/02/13 01:18:27;;;;;;;7.90;2.53;;;;;;;8.91;63.45;99892.31;4153479;28;20018;-74
2024/02/13 01:20:27;;;;;;;7.82;2.75;;;;;;;8.93;63.48;99892.16;4153913;28;20089;-74
2024/02/13 01:22:27;;;;;;;5.82;1.90;;;;;;;8.95;63.38;99892.88;4155066;28;20037;-74
2024/02/13 01:24:29;;;;;;;7.75;2.38;;;;;;;8.99;63.05;99891.59;4155474;28;20030;-74
2024/02/13 01:26:29;;;;;;;;;;;;;;;9.02;62.87;99899.34;4153731;28;20442;-74
2024/02/13 01:28:29;;;;;;;7.57;2.00;;;;;;;9.08;62.81;99900.59;4144657;28;19910;-75
2024/02/13 01:30:31;;;;;;;5.80;2.20;;;;;;;9.10;62.81;99898.66;4151209;28;20025;-75
2024/02/13 01:32:31;;;;;;;7.47;2.03;;;;;;;9.11;62.80;99901.16;4144146;28;20486;-74
2024/02/13 01:34:32;;;;;;;9.10;2.65;;;;;;;9.10;62.89;99896.81;4135397;28;20026;-75
2024/02/13 01:36:34;;;;;;;4.97;1.90;;;;;;;9.19;62.65;99906.66;4142237;28;20034;-74
2024/02/13 01:38:35;;;;;;;8.00;3.03;;;;;;;9.18;62.71;99906.78;4142498;28;20031;-75
2024/02/13 01:40:36;;;;;;;7.03;2.55;;;;;;;9.14;62.71;99913.38;4148540;28;20215;-75
2024/02/13 01:42:39;;;;;;;11.80;2.75;;;;;;;9.18;62.57;99915.63;4142115;28;20038;-75
2024/02/13 01:44:40;;;;;;;8.85;2.22;;;;;;;9.10;62.64;99920.81;4134725;28;20053;-75
2024/02/13 01:46:40;;;;;;;10.02;2.13;;;;;;;9.14;62.78;99914.22;4143550;28;20313;-76
2024/02/13 01:48:41;;;;;;;8.25;2.28;;;;;;;9.08;62.86;99921.94;4141099;28;20438;-75
2024/02/13 01:50:41;;;;;;;7.13;2.25;;;;;;;9.15;62.41;99915.06;4141688;28;20125;-74
2024/02/13 01:52:42;;;;;;;7.63;2.70;;;;;;;9.18;62.51;99920.13;4141803;28;20386;-75
2024/02/13 01:54:44;;;;;;;10.60;2.50;;;;;;;9.28;62.43;99914.78;4151025;28;20275;-75
2024/02/13 01:56:48;;;;;;;5.07;2.25;;;;;;;9.33;62.30;99928.56;4133794;28;20026;-75
2024/02/13 01:58:50;;;;;;;7.13;1.90;;;;;;;9.26;62.56;99927.44;4139887;28;20022;-75
2024/02/13 02:00:58;;;;;;;8.55;2.13;;;;;;;9.18;62.86;99923.63;4143953;28;20022;-75
2024/02/13 02:02:59;;;;;;;7.47;2.03;;;;;;;9.20;62.68;99929.66;4133156;28;20527;-74
2024/02/13 02:05:00;;;;;;;8.77;2.47;;;;;;;9.29;62.62;99927.16;4138364;28;20026;-75
2024/02/13 02:07:01;;;;;;;8.70;2.25;;;;;;;9.39;62.45;99933.34;4149808;28;20084;-75
2024/02/13 02:09:03;;;;;;;9.35;2.30;;;;;;;9.27;62.66;99934.44;4136599;28;20101;-74
2024/02/13 02:11:03;;;;;;;5.97;1.80;;;;;;;9.23;62.98;99933.88;4146767;28;20080;-75
2024/02/13 02:13:04;;;;;;;11.93;2.45;;;;;;;9.14;63.23;99934.72;4141497;28;20034;-74
2024/02/13 02:15:05;;;;;;;5.32;1.75;;;;;;;9.15;63.31;99937.25;4141081;28;20034;-75
2024/02/13 02:17:09;;;;;;;4.13;1.73;;;;;;;9.21;63.12;99941.16;4138589;28;20113;-75
2024/02/13 02:19:09;;;;;;;5.78;1.88;;;;;;;9.12;63.47;99936.66;4142197;28;20030;-74
2024/02/13 02:21:11;;;;;;;6.38;1.75;;;;;;;9.06;63.65;99940.75;4149267;28;20108;-75
2024/02/13 02:23:12;;;;;;;3.85;1.50;;;;;;;9.08;63.51;99941.44;4149169;28;20022;-75
2024/02/13 02:25:13;;;;;;;8.05;2.38;;;;;;;8.93;63.98;99940.16;4149117;28;20022;-74
2024/02/13 02:27:15;;;;;;;7.90;2.10;;;;;;;8.82;64.40;99941.94;4147881;28;20505;-75
2024/02/13 02:29:15;;;;;;;8.80;2.70;;;;;;;8.86;64.28;99932.72;4147681;28;20376;-74
2024/02/13 02:31:16;;;;;;;7.93;2.20;;;;;;;8.84;64.22;99947.13;4149032;28;20033;-75
2024/02/13 02:33:16;;;;;;;10.40;2.15;;;;;;;8.71;64.60;99944.72;4149211;28;20033;-75
2024/02/13 02:35:16;;;;;;;5.63;1.70;;;;;;;8.65;64.70;99945.25;4149067;28;20037;-75
2024/02/13 02:37:17;;;;;;;6.97;2.55;;;;;;;8.61;65.02;99943.84;4147917;28;20026;-74
2024/02/13 02:39:18;;;;;;;5.40;2.20;;;;;;;8.53;65.28;99948.03;4146363;28;20125;-75
2024/02/13 02:41:21;;;;;;;6.13;2.30;;;;;;;8.56;65.12;99949.56;4161359;28;20264;-75
2024/02/13 02:43:22;;;;;;;9.13;2.20;;;;;;;8.58;65.27;99952.94;4156036;28;20091;-75
2024/02/13 02:45:22;;;;;;;4.68;1.83;;;;;;;8.62;65.14;99958.84;4140243;28;20030;-74
2024/02/13 02:47:22;;;;;;;7.32;2.53;;;;;;;8.58;65.07;99961.81;4139236;28;20041;-74
2024/02/13 02:49:23;;;;;;;5.47;1.80;;;;;;;8.66;64.92;99958.44;4135487;28;20375;-75
2024/02/13 02:51:24;;;;;;;5.38;2.05;;;;;;;8.68;64.91;99961.81;4148669;28;20060;-75
2024/02/13 02:53:24;;;;;;;5.70;1.77;;;;;;;8.69;64.71;99966.19;4142330;28;20113;-74
2024/02/13 02:55:25;;;;;;;8.05;2.03;;;;;;;8.60;64.83;99972.31;4142904;28;20308;-74
2024/02/13 02:57:26;;;;;;;7.40;2.40;;;;;;;8.57;64.75;99970.78;4144198;28;20045;-75
2024/02/13 02:59:29;;;;;;;6.25;1.88;;;;;;;8.57;64.75;99970.78;4150526;28;20025;-73
2024/02/13 03:01:29;;;;;;;5.53;1.90;;;;;;;8.49;64.79;99967.06;4136251;28;20057;-75
2024/02/13 03:03:31;;;;;;;7.55;2.13;;;;;;;8.45;64.88;99965.63;4142614;28;20025;-75
2024/02/13 03:05:33;;;;;;;6.65;2.15;;;;;;;8.44;64.83;99967.44;4149772;28;20040;-75
2024/02/13 03:07:33;;;;;;;4.18;1.50;;;;;;;8.49;64.72;99977.72;4142032;28;20022;-74
2024/02/13 03:09:34;;;;;;;5.30;1.60;;;;;;;8.46;64.62;99976.16;4132144;28;20596;-74
2024/02/13 03:11:35;;;;;;;4.85;1.98;;;;;;;8.47;64.71;99975.22;4141211;28;20030;-75
2024/02/13 03:13:36;;;;;;;4.53;1.77;;;;;;;8.50;64.87;99969.59;4141322;28;20057;-74
2024/02/13 03:15:36;;;;;;;9.30;2.17;;;;;;;8.40;64.71;99976.69;4141095;28;20041;-74
2024/02/13 03:17:37;;;;;;;6.68;1.83;;;;;;;8.44;64.74;99978.09;4149591;28;20034;-74
2024/02/13 03:19:38;;;;;;;;;;;;;;;8.35;64.92;99984.22;4147905;28;20545;-75
2024/02/13 03:21:39;;;;;;;4.57;1.53;;;;;;;8.34;64.72;99987.84;4133945;28;19932;-74
2024/02/13 03:23:41;;;;;;;6.00;2.03;;;;;;;8.36;64.71;99989.41;4139457;28;20281;-75
2024/02/13 03:25:41;;;;;;;5.97;2.35;;;;;;;8.27;64.87;99996.38;4140513;28;20034;-74
2024/02/13 03:27:42;;;;;;;4.25;1.58;;;;;;;8.26;64.89;100000.00;4140392;28;20026;-75
2024/02/13 03:29:43;;;;;;;4.57;1.48;;;;;;;8.28;64.80;100003.41;4139920;28;20022;-74
2024/02/13 03:31:44;;;;;;;7.55;2.78;;;;;;;8.21;65.14;100012.88;4140337;28;20027;-75
2024/02/13 03:33:44;;;;;;;5.38;1.90;;;;;;;8.07;65.59;100007.88;4140344;28;20034;-75
2024/02/13 03:35:45;;;;;;;5.68;2.53;;;;;;;8.18;65.31;100017.59;4140015;28;20028;-74
2024/02/13 03:37:45;;;;;;;9.82;2.30;;;;;;;8.21;65.14;100010.22;4139972;28;20038;-74
2024/02/13 03:39:47;;;;;;;6.10;1.93;;;;;;;8.18;64.98;100013.13;4145444;28;20026;-74
2024/02/13 03:41:47;;;;;;;11.38;3.20;;;;;;;8.16;65.00;100019.59;4142060;28;20269;-75
2024/02/13 03:43:49;;;;;;;7.28;2.65;;;;;;;8.14;65.09;100024.19;4139744;28;20023;-74
2024/02/13 03:45:49;;;;;;;8.30;2.60;;;;;;;8.11;65.23;100017.31;4139875;28;20057;-74
2024/02/13 03:47:50;;;;;;;4.45;1.90;;;;;;;8.14;65.05;100022.34;4137939;28;20052;-74
2024/02/13 03:49:51;;;;;;;5.63;1.67;;;;;;;8.17;65.23;100022.09;4140776;28;20041;-74
2024/02/13 03:51:51;;;;;;;5.00;2.15;;;;;;;8.15;65.15;100016.06;4136864;28;20535;-74
2024/02/13 03:53:51;;;;;;;7.27;1.90;;;;;;;8.15;65.03;100025.88;4141240;28;20030;-74
2024/02/13 03:55:52;;;;;;;5.87;2.33;;;;;;;8.09;65.24;100024.56;4139776;28;20542;-74
2024/02/13 03:57:52;;;;;;;4.70;2.00;;;;;;;8.11;65.28;100022.63;4140395;28;20296;-75
2024/02/13 03:59:53;;;;;;;5.60;1.80;;;;;;;8.09;65.24;100027.25;4139719;28;20032;-74
2024/02/13 04:01:54;;;;;;;5.03;1.70;;;;;;;8.09;65.25;100028.06;4140596;28;20046;-74
2024/02/13 04:03:54;;;;;;;4.28;1.42;;;;;;;8.12;65.27;100027.00;4142573;28;20040;-74
2024/02/13 04:05:55;;;;;;;8.23;2.22;;;;;;;8.05;65.44;100042.63;4133297;28;20117;-74
2024/02/13 04:07:56;;;;;;;4.95;1.50;;;;;;;8.10;65.43;100039.56;4141334;28;20060;-74
2024/02/13 04:09:57;;;;;;;5.50;1.93;;;;;;;8.18;65.15;100037.09;4141168;28;20341;-74
2024/02/13 04:11:58;;;;;;;5.43;2.05;;;;;;;8.18;65.19;100038.91;4133661;28;20269;-74
2024/02/13 04:13:58;;;;;;;5.88;2.20;;;;;;;8.24;65.10;100043.75;4134180;28;20087;-74
2024/02/13 04:16:00;;;;;;;8.93;2.50;;;;;;;8.26;65.12;100042.63;4147806;28;20494;-75
2024/02/13 04:18:02;;;;;;;5.38;1.83;;;;;;;8.28;65.17;100040.69;4139462;28;20057;-74
2024/02/13 04:20:04;;;;;;;4.35;1.60;;;;;;;8.32;64.96;100045.72;4139414;28;20099;-75
2024/02/13 04:22:05;;;;;;;7.57;2.55;;;;;;;8.43;64.81;100032.34;4138284;28;20465;-74
2024/02/13 04:24:06;;;;;;;5.03;1.80;;;;;;;8.54;64.46;100042.13;4144150;28;20117;-74
2024/02/13 04:26:07;;;;;;;6.10;2.35;;;;;;;8.62;64.18;100034.31;4139126;28;20027;-74
2024/02/13 04:28:07;;;;;;;5.57;1.90;;;;;;;8.54;64.52;100040.31;4134082;28;20099;-74
2024/02/13 04:30:12;;;;;;;7.53;2.55;;;;;;;8.33;65.02;100047.44;4138986;28;20095;-74
2024/02/13 04:32:13;;;;;;;4.85;1.98;;;;;;;8.37;65.28;100046.19;4142794;28;20033;-74
2024/02/13 04:34:13;;;;;;;8.60;2.47;;;;;;;8.30;65.47;100048.53;4143043;28;20030;-74
2024/02/13 04:36:13;;;;;;;5.60;2.10;;;;;;;8.23;65.89;100045.53;4129836;28;20030;-75
2024/02/13 04:38:14;;;;;;;8.05;2.38;;;;;;;8.23;65.85;100050.03;4139735;28;20030;-74
2024/02/13 04:40:14;;;;;;;7.38;2.25;;;;;;;8.21;65.88;100058.16;4132448;28;20022;-75
2024/02/13 04:42:15;;;;;;;12.50;3.20;;;;;;;8.05;66.50;100049.75;4152881;28;20470;-74
2024/02/13 04:44:15;;;;;;;6.67;2.37;;;;;;;8.23;66.13;100050.88;4154732;28;20096;-75
2024/02/13 04:46:16;;;;;;;5.90;2.40;;;;;;;8.34;65.73;100059.78;4140118;28;20029;-74
2024/02/13 04:48:17;;;;;;;5.20;2.00;;;;;;;8.38;65.69;100062.03;4145147;28;20509;-75
2024/02/13 04:50:17;;;;;;;10.13;2.65;;;;;;;8.45;65.56;100064.22;4145689;28;20121;-74
2024/02/13 04:52:17;;;;;;;7.15;2.90;;;;;;;8.42;65.84;100055.50;4148211;28;20084;-75
2024/02/13 04:54:18;;;;;;;7.88;2.35;;;;;;;8.38;65.87;100056.72;4151025;28;20026;-74
2024/02/13 04:56:18;;;;;;;6.88;2.70;;;;;;;8.48;65.63;100051.50;4142640;28;20066;-74
2024/02/13 04:58:20;;;;;;;6.15;2.47;;;;;;;8.54;65.40;100056.28;4143540;28;20030;-74
2024/02/13 05:00:24;;;;;;;5.72;2.33;;;;;;;8.56;65.48;100049.03;4150420;28;20561;-74
2024/02/13 05:02:25;;;;;;;6.13;2.17;;;;;;;8.60;65.43;100056.75;4145703;28;20105;-75
2024/02/13 05:08:50;;;;;;;6.32;2.10;;;;;;;8.57;65.62;100058.69;4134873;28;20096;-75
2024/02/13 05:10:51;;;;;;;8.85;2.75;;;;;;;8.55;65.95;100052.66;4134720;28;20518;-74
2024/02/13 05:12:53;;;;;;;11.98;3.22;;;;;;;8.58;65.88;100056.88;4148057;28;20061;-75
2024/02/13 05:14:54;;;;;;;9.57;2.72;;;;;;;8.43;66.41;100054.53;4148575;28;20060;-74
2024/02/13 05:16:54;;;;;;;10.52;3.25;;;;;;;8.23;67.00;100052.69;4149327;28;20022;-74
2024/02/13 05:18:55;;;;;;;8.98;2.17;;;;;;;8.36;66.61;100050.66;4149370;28;20038;-75
2024/02/13 05:20:55;;;;;;;6.82;2.78;;;;;;;8.50;66.25;100062.84;4150382;28;20454;-75
2024/02/13 05:22:56;;;;;;;10.60;3.20;;;;;;;8.49;66.12;100058.53;4148682;28;20520;-75
2024/02/13 05:24:56;;;;;;;8.75;2.72;;;;;;;8.54;66.08;100056.28;4151631;28;20322;-75
2024/02/13 05:26:57;;;;;;;7.20;2.97;;;;;;;8.43;66.70;100061.66;4147722;28;20025;-75
2024/02/13 05:28:57;;;;;;;9.13;2.42;;;;;;;8.43;66.54;100059.00;4132831;28;20269;-74
2024/02/13 05:30:58;;;;;;;7.53;2.33;;;;;;;8.46;66.50;100058.75;4141393;28;20562;-74
2024/02/13 05:32:59;;;;;;;9.65;2.75;;;;;;;8.41;66.60;100066.25;4141030;28;20044;-75
2024/02/13 05:35:00;;;;;;;6.68;2.13;;;;;;;8.50;66.32;100070.00;4138826;28;20549;-75
2024/02/13 05:37:01;;;;;;;6.88;2.35;;;;;;;8.51;66.46;100074.38;4135169;28;20037;-75
2024/02/13 05:39:03;;;;;;;7.07;2.42;;;;;;;8.40;66.90;100069.94;4139281;28;20031;-75
2024/02/13 05:41:04;;;;;;;9.65;2.50;;;;;;;8.39;67.13;100068.22;4145023;28;20022;-75
2024/02/13 05:43:07;;;;;;;6.68;2.67;;;;;;;8.33;67.10;100076.72;4142126;28;20037;-74
2024/02/13 05:45:08;;;;;;;9.13;3.25;;;;;;;8.34;66.98;100071.28;4145457;28;20053;-74
2024/02/13 05:47:09;;;;;;;8.55;2.65;;;;;;;8.33;66.99;100074.91;4140683;28;20502;-74
2024/02/13 05:49:09;;;;;;;6.67;2.40;;;;;;;8.35;67.03;100083.63;4140487;28;20034;-74
2024/02/13 05:51:14;;;;;;;9.00;2.40;;;;;;;8.33;67.07;100077.59;4139146;28;20276;-75
2024/02/13 05:53:15;;;;;;;5.07;1.90;;;;;;;8.45;66.62;100080.19;4142849;28;20268;-74
2024/02/13 05:55:16;;;;;;;6.13;2.45;;;;;;;8.35;66.92;100075.66;4140374;28;20413;-74
2024/02/13 05:57:18;;;;;;;7.35;2.58;;;;;;;8.38;66.95;100077.19;4140498;28;20037;-75
2024/02/13 05:59:23;;;;;;;7.55;2.80;;;;;;;8.53;66.48;100077.75;4140445;28;20494;-75
2024/02/13 06:01:25;;;;;;;4.68;1.90;;;;;;;8.62;66.29;100081.44;4140834;28;20038;-74
2024/02/13 06:03:25;;;;;;;;;;;;;;;8.74;66.01;100091.88;4137416;28;20044;-74
2024/02/13 06:05:26;;;;;;;6.40;2.20;;;;;;;8.69;66.15;100090.63;4140458;28;19909;-73
2024/02/13 06:07:26;;;;;;;6.35;2.20;;;;;;;8.69;66.19;100096.78;4148890;28;20017;-75
2024/02/13 06:09:27;;;;;;;5.03;2.03;;;;;;;8.79;65.98;100095.97;4138417;28;20506;-75
2024/02/13 06:11:28;;;;;;;;;;;;;;;8.85;65.70;100093.63;4140948;28;20021;-74
2024/02/13 06:13:29;;;;;;;6.37;2.10;;;;;;;8.79;65.79;100096.81;4140573;28;20284;-74
2024/02/13 06:15:29;;;;;;;10.23;3.50;;;;;;;8.69;66.30;100106.59;4143715;28;20113;-75
2024/02/13 06:17:30;;;;;;;8.38;2.30;;;;;;;8.69;66.53;100098.59;4142256;28;20265;-74
2024/02/13 06:19:30;;;;;;;10.82;3.80;;;;;;;8.71;66.44;100099.28;4144223;28;20017;-73
2024/02/13 06:21:32;;;;;;;5.88;2.38;;;;;;;8.66;66.69;100114.84;4145231;28;20033;-74
2024/02/13 06:23:32;;;;;;;7.45;2.85;;;;;;;8.69;66.54;100106.59;4144072;28;20840;-73
2024/02/13 06:25:33;;;;;;;6.72;2.75;;;;;;;8.65;66.56;100105.16;4144409;28;20029;-74
2024/02/13 06:27:35;;;;;;;5.47;2.05;;;;;;;8.70;66.47;100113.59;4153595;28;20341;-74
2024/02/13 06:29:35;;;;;;;8.32;3.42;;;;;;;8.56;66.73;100112.97;4143339;28;20045;-74
2024/02/13 06:31:36;;;;;;;7.40;2.53;;;;;;;8.49;67.10;100119.81;4137244;28;20026;-74
2024/02/13 06:33:38;;;;;;;7.85;3.00;;;;;;;8.56;66.92;100120.09;4144747;28;20097;-74
2024/02/13 06:35:42;;;;;;;8.23;2.83;;;;;;;8.52;67.03;100121.34;4154115;28;20022;-74
2024/02/13 06:37:43;;;;;;;7.32;3.03;;;;;;;8.54;67.00;100135.41;4148560;28;20046;-74
2024/02/13 06:39:43;;;;;;;7.95;3.38;;;;;;;8.56;67.01;100133.41;4138729;28;20021;-74
2024/02/13 06:41:44;;;;;;;6.82;2.97;;;;;;;8.66;66.71;100133.50;4152556;28;20072;-74
2024/02/13 06:43:44;;;;;;;9.95;3.85;;;;;;;8.58;67.03;100139.47;4147001;28;20038;-75
2024/02/13 06:45:45;;;;;;;7.20;2.92;;;;;;;8.55;67.20;100137.91;4142160;28;20080;-74
2024/02/13 06:47:46;;;;;;;8.23;3.35;;;;;;;8.58;67.20;100145.66;4138289;28;20069;-75
2024/02/13 06:49:46;;;;;;;8.85;3.42;;;;;;;8.66;66.93;100141.50;4147126;28;20121;-74
2024/02/13 06:51:47;;;;;;;5.28;2.45;;;;;;;8.76;66.86;100150.41;4140748;28;20036;-74
2024/02/13 06:53:47;;;;;;;7.90;2.70;;;;;;;8.79;66.68;100147.47;4140029;28;20035;-74
2024/02/13 06:55:48;;;;;;;6.50;2.50;;;;;;;8.86;66.57;100139.78;4139812;28;20026;-74
2024/02/13 06:57:48;;;;;;;6.63;2.40;;;;;;;8.87;66.60;100144.16;4139593;28;20034;-75
2024/02/13 06:59:49;;;;;;;6.20;2.50;;;;;;;8.92;66.50;100149.09;4139316;28;20026;-74
2024/02/13 07:01:50;;;;;;;6.03;2.28;;;;;;;8.87;66.61;100153.00;4139022;28;20473;-74
2024/02/13 07:03:50;;;;;;;6.93;2.53;;;;;;;8.83;66.91;100159.56;4137832;28;20050;-74
2024/02/13 07:05:51;;;;;;;10.95;2.60;;;;;;;8.79;66.94;100155.47;4139162;28;20130;-74
2024/02/13 07:07:51;;;;;;;7.80;2.72;;;;;;;8.74;67.00;100163.84;4138787;28;20509;-74
2024/02/13 07:09:52;;;;;;;7.10;2.72;;;;;;;8.74;67.10;100168.34;4145226;28;20117;-74
2024/02/13 07:11:53;;;;;;;15.68;3.50;;;;;;;8.74;67.18;100171.00;4130921;28;20034;-74
2024/02/13 07:13:53;;;;;;;8.57;3.55;;;;;;;8.76;67.02;100171.72;4138001;28;20045;-75
2024/02/13 07:15:54;;;;;;;9.63;4.18;;;;;;;8.82;67.05;100173.88;4138798;28;20026;-74
2024/02/13 07:17:54;;;;;;;7.80;3.05;;;;;;;8.92;66.74;100175.75;4138853;28;20111;-74
2024/02/13 07:19:57;;;;;;;9.10;2.28;;;;;;;8.95;66.44;100175.50;4139222;28;20019;-74
2024/02/13 07:21:57;;;;;;;5.90;2.30;;;;;;;9.00;66.39;100174.13;4130960;28;20527;-74
2024/02/13 07:23:58;;;;;;;9.60;3.35;;;;;;;8.84;66.68;100179.91;4131418;28;20022;-74
2024/02/13 07:26:00;;;;;;;7.63;2.83;;;;;;;9.06;66.54;100186.09;4140154;28;20030;-74
2024/02/13 07:28:01;;;;;;;5.15;2.08;;;;;;;9.15;66.08;100185.31;4139123;28;20089;-73
2024/02/13 07:30:02;;;;;;;6.72;2.25;;;;;;;9.20;65.83;100179.56;4138640;28;20133;-73
2024/02/13 07:32:03;;;;;;;6.57;2.10;;;;;;;9.23;66.04;100183.78;4139127;28;20034;-74
2024/02/13 07:34:03;;;;;;;7.13;2.50;;;;;;;9.22;66.00;100185.59;4146340;28;20035;-75
2024/02/13 07:36:05;;;;;;;5.43;2.70;;;;;;;9.18;66.11;100186.84;4131317;28;20033;-74
2024/02/13 07:38:06;;;;;;;6.38;2.53;;;;;;;9.21;66.17;100190.09;4146353;28;20772;-74
2024/02/13 07:40:07;;;;;;;10.90;3.45;;;;;;;8.96;66.99;100196.69;4138317;28;20022;-74
2024/02/13 07:42:10;;;;;;;9.27;2.97;;;;;;;8.81;67.40;100201.50;4139653;28;20021;-74
2024/02/13 07:44:11;;;;;;;9.65;2.95;;;;;;;8.88;67.39;100204.50;4139080;28;20045;-74
2024/02/13 07:46:11;;;;;;;9.70;2.67;;;;;;;8.81;67.69;100206.84;4138573;28;20027;-74
2024/02/13 07:48:12;;;;;;;8.90;3.47;;;;;;;8.85;67.47;100205.59;4138036;28;20030;-74
2024/02/13 07:50:14;;;;;;;8.00;3.35;;;;;;;8.94;67.19;100209.28;4134761;28;20038;-74
2024/02/13 07:52:17;;;;;;;7.93;2.20;;;;;;;8.99;67.05;100215.09;4147430;28;20469;-74
2024/02/13 07:54:21;;;;;;;7.97;2.55;;;;;;;8.94;67.15;100201.31;4139520;28;20022;-74
2024/02/13 07:56:28;;;;;;;9.50;3.42;;;;;;;8.86;67.51;100201.09;4138176;28;20031;-76
2024/02/13 07:58:28;;;;;;;6.80;2.95;;;;;;;8.89;67.30;100212.34;4144987;28;20026;-74
2024/02/13 08:00:31;;;;;;;10.05;3.13;;;;;;;8.95;67.11;100215.50;4138282;28;20026;-74
2024/02/13 08:02:32;;;;;;;9.52;3.33;;;;;;;9.02;66.95;100211.31;4141789;28;20046;-74
2024/02/13 08:04:35;;;;;;;7.80;2.80;;;;;;;8.97;67.18;100216.22;4138013;28;20076;-74
2024/02/13 08:06:37;;;;;;;8.88;3.00;;;;;;;8.92;67.42;100210.41;4135073;28;20538;-74
2024/02/13 08:08:37;;;;;;;7.70;3.05;;;;;;;9.01;67.28;100212.28;4133080;28;20124;-74
2024/02/13 08:10:38;;;;;;;8.50;2.90;;;;;;;8.95;67.49;100223.50;4138417;28;20022;-75
2024/02/13 08:12:39;;;;;;;14.95;3.25;;;;;;;9.00;67.34;100218.59;4135744;28;20421;-75
2024/02/13 08:14:39;;;;;;;10.63;3.03;;;;;;;8.96;67.55;100217.19;4138131;28;20037;-74
2024/02/13 08:16:41;;;;;;;11.38;3.03;;;;;;;8.87;67.85;100227.66;4138341;28;20045;-74
2024/02/13 08:18:42;;;;;;;8.90;3.90;;;;;;;8.93;67.90;100220.09;4137623;28;20037;-73
2024/02/13 08:20:42;;;;;;;9.98;3.28;;;;;;;8.99;67.64;100227.56;4138039;28;20466;-74
2024/02/13 08:22:42;;;;;;;12.27;4.27;;;;;;;9.01;67.74;100225.63;4132815;28;20526;-74
2024/02/13 08:24:43;;;;;;;9.90;3.55;;;;;;;9.10;67.44;100219.50;4135546;28;20246;-74
2024/02/13 08:26:44;;;;;;;9.65;3.25;;;;;;;8.82;68.26;100227.19;4132721;28;20037;-73
2024/02/13 08:28:44;;;;;;;11.07;3.70;;;;;;;8.74;68.45;100227.00;4137544;28;20084;-74
2024/02/13 08:30:44;;;;;;;9.68;2.85;;;;;;;8.88;68.09;100233.81;4138179;28;20030;-74
2024/02/13 08:32:45;;;;;;;9.68;3.28;;;;;;;8.79;68.51;100230.09;4135701;28;20038;-74
2024/02/13 08:34:45;;;;;;;8.88;3.30;;;;;;;8.89;68.22;100230.19;4138743;28;20588;-74
2024/02/13 08:36:48;;;;;;;7.10;3.17;;;;;;;8.90;68.25;100227.38;4139684;28;20026;-74
2024/02/13 08:38:49;;;;;;;9.88;3.30;;;;;;;8.97;68.04;100226.88;4133505;28;20121;-75
2024/02/13 08:40:49;;;;;;;7.90;2.80;;;;;;;8.90;68.20;100230.03;4136120;28;20375;-74
2024/02/13 08:42:50;;;;;;;7.93;3.33;;;;;;;9.00;67.88;100223.94;4138146;28;20048;-74
2024/02/13 08:44:52;;;;;;;9.98;3.75;;;;;;;9.00;67.94;100221.25;4137909;28;20266;-74
2024/02/13 08:46:52;;;;;;;8.15;3.50;;;;;;;9.07;68.03;100226.94;4138414;28;20030;-74
2024/02/13 08:48:53;;;;;;;12.68;3.92;;;;;;;9.08;68.12;100225.97;4136830;28;20293;-74
2024/02/13 08:50:55;;;;;;;10.07;4.03;;;;;;;9.03;68.10;100221.00;4137929;28;20033;-74
2024/02/13 08:52:55;;;;;;;8.90;3.78;;;;;;;9.11;68.17;100225.72;4136755;28;20032;-74
2024/02/13 08:54:56;;;;;;;9.23;3.72;;;;;;;9.20;67.77;100225.75;4137592;28;20022;-74
2024/02/13 08:56:56;;;;;;;9.95;3.70;;;;;;;9.33;67.45;100222.03;4138299;28;20065;-74
2024/02/13 08:58:58;;;;;;;11.70;4.35;;;;;;;9.23;67.60;100231.81;4137464;28;20137;-74
2024/02/13 09:00:59;;;;;;;8.68;3.45;;;;;;;9.38;67.29;100225.13;4137956;28;20051;-74
2024/02/13 09:03:01;;;;;;;6.53;3.28;;;;;;;9.63;66.57;100228.38;4137444;28;20057;-74
2024/02/13 09:05:03;;;;;;;8.07;3.28;;;;;;;9.74;66.28;100228.25;4138886;28;20034;-75
2024/02/13 09:07:05;;;;;;;9.13;3.78;;;;;;;9.83;66.03;100224.75;4156085;28;20075;-75
2024/02/13 09:09:08;;;;;;;8.63;3.60;;;;;;;10.10;65.70;100227.78;4150503;28;20370;-74
2024/02/13 09:11:08;;;;;;;8.50;3.65;;;;;;;10.47;64.96;100223.66;4137621;28;20026;-74
2024/02/13 09:13:09;;;;;;;7.32;3.30;;;;;;;10.73;64.08;100221.25;4129950;28;20030;-75
2024/02/13 09:15:11;;;;;;;5.85;2.80;;;;;;;10.88;63.91;100229.69;4128620;28;20027;-76
2024/02/13 09:17:12;;;;;;;7.32;3.60;;;;;;;11.17;63.34;100240.38;4137703;28;20026;-74
2024/02/13 09:19:12;;;;;;;8.40;3.13;;;;;;;11.57;62.43;100232.22;4137423;28;20493;-74
2024/02/13 09:21:15;;;;;;;7.43;2.92;;;;;;;11.67;62.07;100235.69;4136799;28;20030;-74
2024/02/13 09:23:19;;;;;;;9.70;3.35;;;;;;;11.76;61.64;100244.69;4145970;28;20026;-74
2024/02/13 09:25:20;;;;;;;7.20;2.97;;;;;;;11.92;60.89;100238.69;4137748;28;20034;-74
2024/02/13 09:27:20;;;;;;;7.15;3.50;;;;;;;12.23;60.27;100239.25;4133838;28;20497;-74
2024/02/13 09:29:22;;;;;;;8.10;3.13;;;;;;;12.57;59.46;100230.53;4137269;28;20042;-74
2024/02/13 09:31:23;;;;;;;8.55;3.22;;;;;;;13.09;58.43;100220.91;4144663;28;20030;-74
2024/02/13 09:33:23;;;;;;;9.00;3.40;;;;;;;12.63;58.39;100232.63;4137516;28;20037;-75
2024/02/13 09:35:23;;;;;;;10.15;3.47;;;;;;;12.53;58.54;100217.56;4144690;28;20463;-75
2024/02/13 09:37:25;;;;;;;8.32;3.70;;;;;;;12.59;58.32;100215.13;4139691;28;20467;-75